Time;durP1;ratioP1;P1;durP2;ratioP2;P2;SDS_P1;SDS_P2;PMS_P1;PMS_P2;Temp;Humidity;BMP_temperature;BMP_pressure;BME280_temperature;BME280_humidity;BME280_pressure;Samples;Min_cycle;Max_cycle;Signal;HPM_P1;HPM_P2
2021/10/23 00:01:42;;;;;;;4.78;1.95;;;;;;;26.13;31.92;102210.16;4147652;28;20481;-62
2021/10/23 00:03:44;;;;;;;5.03;2.10;;;;;;;26.15;31.54;102219.00;4147485;28;20491;-65
2021/10/23 00:05:47;;;;;;;4.72;1.77;;;;;;;26.18;31.65;102217.88;4147350;28;20042;-61
2021/10/23 00:07:49;;;;;;;5.78;2.00;;;;;;;26.35;31.59;102235.44;4147589;28;20524;-62
2021/10/23 00:09:51;;;;;;;6.05;2.20;;;;;;;26.17;31.50;102207.22;4147402;28;20524;-63
2021/10/23 00:11:53;;;;;;;5.15;2.08;;;;;;;26.36;31.61;102245.25;4147438;28;20698;-64
2021/10/23 00:13:56;;;;;;;4.57;2.00;;;;;;;25.99;31.56;102184.25;4147573;28;20048;-65
2021/10/23 00:15:58;;;;;;;5.40;2.00;;;;;;;26.36;31.90;102249.78;4147127;28;20418;-68
2021/10/23 00:18:01;;;;;;;5.07;1.83;;;;;;;26.33;31.53;102247.31;4147401;28;20654;-69
2021/10/23 00:20:04;;;;;;;5.50;1.80;;;;;;;26.12;31.78;102216.53;4147247;28;20046;-60
2021/10/23 00:22:06;;;;;;;5.88;2.10;;;;;;;26.14;31.72;102219.13;4147280;28;20484;-61
2021/10/23 00:24:08;;;;;;;6.07;2.05;;;;;;;26.32;31.55;102238.38;4147405;28;20071;-64
2021/10/23 00:26:11;;;;;;;5.32;1.90;;;;;;;25.96;31.49;102180.94;4147154;28;20038;-63
2021/10/23 00:28:13;;;;;;;3.95;1.75;;;;;;;26.10;31.67;102209.53;4147334;28;20049;-67
2021/10/23 00:30:16;;;;;;;4.10;1.90;;;;;;;26.37;31.56;102252.38;4147077;28;20465;-64
2021/10/23 00:32:19;;;;;;;3.65;1.70;;;;;;;26.20;31.54;102223.16;4147221;28;20526;-67
2021/10/23 00:34:21;;;;;;;4.70;1.50;;;;;;;26.20;31.72;102228.53;4147183;28;20053;-63
2021/10/23 00:36:24;;;;;;;4.50;1.80;;;;;;;26.20;31.59;102226.72;4146797;28;20470;-64
2021/10/23 00:38:26;;;;;;;5.07;1.95;;;;;;;26.05;31.57;102201.75;4147089;28;20053;-63
2021/10/23 00:40:29;;;;;;;5.38;1.73;;;;;;;26.14;31.44;102216.41;4146995;28;20112;-62
2021/10/23 00:42:33;;;;;;;4.40;1.55;;;;;;;26.38;31.83;102261.31;4146232;28;20054;-62
2021/10/23 00:44:38;;;;;;;4.68;1.80;;;;;;;26.31;31.44;102248.31;4147103;28;20046;-61
2021/10/23 00:46:40;;;;;;;4.97;1.83;;;;;;;26.13;31.71;102223.63;4146759;28;20049;-63
2021/10/23 00:48:43;;;;;;;4.38;1.77;;;;;;;26.31;31.84;102245.59;4147012;28;20046;-63
2021/10/23 00:50:47;;;;;;;4.20;1.80;;;;;;;26.13;31.83;102215.53;4146906;28;20049;-69
2021/10/23 00:52:50;;;;;;;4.88;2.17;;;;;;;26.32;31.38;102243.78;4146761;28;20042;-66
2021/10/23 00:54:53;;;;;;;5.10;1.67;;;;;;;26.33;31.60;102247.31;4147072;28;20061;-59
2021/10/23 00:56:56;;;;;;;4.38;1.67;;;;;;;26.28;31.80;102239.59;4146447;28;20084;-65
2021/10/23 00:58:58;;;;;;;4.32;1.60;;;;;;;26.03;31.56;102197.47;4152568;28;20049;-62
2021/10/23 01:01:01;;;;;;;4.82;1.80;;;;;;;26.09;31.46;102210.50;4163068;28;20128;-64
2021/10/23 01:03:05;;;;;;;6.47;1.90;;;;;;;26.38;31.72;102258.59;4141037;28;20073;-68
2021/10/23 01:05:09;;;;;;;4.70;1.75;;;;;;;26.12;31.57;102208.44;4146617;28;20052;-66
2021/10/23 01:07:11;;;;;;;4.53;1.90;;;;;;;26.20;31.49;102218.63;4146315;28;20042;-63
2021/10/23 01:09:14;;;;;;;4.32;1.67;;;;;;;26.33;31.74;102236.53;4146811;28;20045;-63
2021/10/23 01:11:17;;;;;;;5.22;1.83;;;;;;;26.24;31.75;102227.34;4146653;28;20045;-68
2021/10/23 01:13:19;;;;;;;4.75;1.63;;;;;;;26.33;31.55;102241.94;4146227;28;20104;-62
2021/10/23 01:15:24;;;;;;;5.03;1.80;;;;;;;26.21;31.41;102224.88;4146505;28;20104;-62
2021/10/23 01:17:26;;;;;;;5.40;1.77;;;;;;;26.09;31.32;102199.72;4146304;28;20521;-60
2021/10/23 01:19:28;;;;;;;4.78;1.80;;;;;;;26.05;31.38;102195.53;4146491;28;20042;-65
2021/10/23 01:21:31;;;;;;;4.97;2.05;;;;;;;26.28;31.70;102232.38;4146529;28;20046;-63
2021/10/23 01:23:33;;;;;;;4.60;1.83;;;;;;;26.06;31.63;102194.56;4146203;28;20053;-62
2021/10/23 01:25:35;;;;;;;5.22;1.60;;;;;;;26.03;31.65;102186.69;4161315;28;20053;-63
2021/10/23 01:27:39;;;;;;;5.22;1.88;;;;;;;26.36;31.23;102239.84;4146144;28;20069;-68
2021/10/23 01:29:41;;;;;;;4.55;1.77;;;;;;;26.40;31.70;102240.47;4146365;28;20422;-64
2021/10/23 01:31:44;;;;;;;4.38;1.75;;;;;;;26.40;31.63;102235.06;4146512;28;20049;-60
2021/10/23 01:33:47;;;;;;;5.20;1.73;;;;;;;26.07;31.38;102189.06;4145971;28;20037;-64
2021/10/23 01:35:49;;;;;;;4.13;1.50;;;;;;;26.26;31.53;102215.44;4146308;28;20038;-61
2021/10/23 01:37:54;;;;;;;4.68;1.55;;;;;;;26.41;31.57;102237.63;4145991;28;20049;-67
2021/10/23 01:39:56;;;;;;;4.25;1.42;;;;;;;26.40;31.45;102227.81;4135586;28;20045;-63
2021/10/23 01:41:59;;;;;;;4.75;1.90;;;;;;;26.39;31.54;102228.84;4146346;28;20061;-60
2021/10/23 01:44:01;;;;;;;4.50;1.80;;;;;;;25.99;31.60;102170.78;4145954;28;20042;-60
2021/10/23 01:46:04;;;;;;;4.70;1.77;;;;;;;26.18;31.62;102188.22;4146027;28;20089;-61
2021/10/23 01:48:06;;;;;;;4.65;1.75;;;;;;;26.11;31.51;102181.59;4145911;28;20042;-65
2021/10/23 01:50:15;;;;;;;4.80;1.80;;;;;;;26.19;31.43;102189.09;4145954;28;20481;-64
2021/10/23 01:52:17;;;;;;;3.97;1.65;;;;;;;26.42;31.31;102225.03;4146102;28;20053;-64
2021/10/23 01:54:20;;;;;;;5.93;1.77;;;;;;;26.24;31.62;102198.53;4144647;28;20088;-62
2021/10/23 01:56:22;;;;;;;4.88;1.92;;;;;;;26.09;31.63;102173.63;4145812;28;20046;-61
2021/10/23 01:58:24;;;;;;;4.72;1.63;;;;;;;26.18;31.48;102192.78;4146960;28;20541;-66
2021/10/23 02:00:26;;;;;;;4.68;1.88;;;;;;;26.42;31.63;102225.03;4147079;28;20112;-61
2021/10/23 02:02:28;;;;;;;4.65;1.75;;;;;;;26.10;31.65;102177.19;4145860;28;20055;-63
2021/10/23 02:04:31;;;;;;;5.18;1.98;;;;;;;26.23;31.29;102194.09;4145379;28;20049;-62
2021/10/23 02:06:33;;;;;;;4.53;1.80;;;;;;;26.36;31.25;102214.72;4145771;28;20050;-61
2021/10/23 02:08:36;;;;;;;3.88;1.55;;;;;;;26.40;31.18;102219.72;4145703;28;20057;-64
2021/10/23 02:10:38;;;;;;;4.20;1.50;;;;;;;26.36;31.35;102215.56;4145703;28;20271;-64
2021/10/23 02:12:41;;;;;;;4.82;1.73;;;;;;;26.19;31.58;102175.63;4145925;28;20041;-64
2021/10/23 02:14:43;;;;;;;3.10;1.35;;;;;;;26.36;31.29;102198.53;4145599;28;20048;-64
2021/10/23 02:16:45;;;;;;;4.60;1.70;;;;;;;26.44;31.17;102210.44;4145861;28;20046;-66
2021/10/23 02:18:47;;;;;;;4.07;1.70;;;;;;;26.28;31.37;102186.53;4145660;28;20493;-62
2021/10/23 02:20:50;;;;;;;4.35;1.67;;;;;;;26.40;31.33;102194.63;4142101;28;20061;-60
2021/10/23 02:22:52;;;;;;;4.43;1.65;;;;;;;26.31;31.45;102178.19;4145832;28;20045;-62
2021/10/23 02:24:54;;;;;;;4.25;1.63;;;;;;;26.33;31.43;102186.13;4145479;28;20494;-61
2021/10/23 02:26:56;;;;;;;4.22;1.40;;;;;;;26.44;31.26;102207.75;4145592;28;20046;-63
2021/10/23 02:28:58;;;;;;;4.05;1.63;;;;;;;26.45;31.22;102200.50;4144603;28;20053;-59
2021/10/23 02:31:05;;;;;;;3.40;1.40;;;;;;;26.37;31.36;102189.44;4144921;28;20046;-63
2021/10/23 02:33:07;;;;;;;5.38;1.63;;;;;;;26.38;31.57;102194.75;4145846;28;20538;-67
2021/10/23 02:35:09;;;;;;;4.85;1.75;;;;;;;26.08;31.32;102144.09;4145449;28;20057;-63
2021/10/23 02:37:13;;;;;;;4.00;1.40;;;;;;;26.44;31.22;102206.84;4145780;28;20149;-64
2021/10/23 02:39:15;;;;;;;3.60;1.60;;;;;;;26.40;31.16;102184.66;4145689;28;20042;-69
2021/10/23 02:41:22;;;;;;;5.13;1.75;;;;;;;26.20;30.96;102161.13;4145414;28;20046;-60
2021/10/23 02:43:24;;;;;;;4.80;1.75;;;;;;;26.36;31.52;102187.75;4144433;28;20045;-60
2021/10/23 02:45:27;;;;;;;3.40;1.48;;;;;;;26.46;31.15;102210.31;4137026;28;20045;-63
2021/10/23 02:47:29;;;;;;;4.88;1.70;;;;;;;26.47;31.08;102209.31;4145505;28;20181;-63
2021/10/23 02:49:31;;;;;;;3.92;1.40;;;;;;;26.47;31.19;102212.03;4145656;28;20072;-61
2021/10/23 02:51:34;;;;;;;3.15;1.50;;;;;;;26.15;31.18;102164.22;4145394;28;20513;-66
2021/10/23 02:53:37;;;;;;;3.85;1.50;;;;;;;26.13;31.17;102155.38;4145317;28;20057;-63
2021/10/23 02:55:39;;;;;;;3.55;1.38;;;;;;;26.11;31.20;102147.41;4145196;28;20046;-66
2021/10/23 02:57:41;;;;;;;4.80;1.50;;;;;;;26.37;31.44;102198.41;4145050;28;20064;-61
2021/10/23 02:59:44;;;;;;;5.15;1.58;;;;;;;26.19;31.24;102165.69;4157435;28;20064;-67
2021/10/23 03:01:46;;;;;;;3.58;1.50;;;;;;;26.42;31.13;102211.53;4146920;28;20046;-61
2021/10/23 03:03:48;;;;;;;4.55;1.40;;;;;;;26.38;31.05;102208.22;4145138;28;20050;-65
2021/10/23 03:05:50;;;;;;;4.38;1.58;;;;;;;26.08;31.13;102154.91;4146462;28;20433;-65
2021/10/23 03:07:52;;;;;;;3.05;1.30;;;;;;;26.47;30.99;102222.81;4148337;28;20067;-71
2021/10/23 03:09:54;;;;;;;4.40;1.63;;;;;;;26.42;31.33;102214.25;4148563;28;20461;-69
2021/10/23 03:11:57;;;;;;;3.85;1.60;;;;;;;26.42;31.33;102207.00;4148237;28;20046;-71
2021/10/23 03:13:59;;;;;;;4.22;1.58;;;;;;;26.34;31.25;102190.56;4148501;28;20046;-69
2021/10/23 03:16:01;;;;;;;3.72;1.50;;;;;;;26.10;31.33;102145.69;4148194;28;20041;-64
2021/10/23 03:18:03;;;;;;;3.40;1.45;;;;;;;26.22;31.08;102172.66;4148154;28;20041;-66
2021/10/23 03:20:06;;;;;;;6.20;1.70;;;;;;;26.45;31.28;102208.59;4148359;28;20536;-65
2021/10/23 03:22:08;;;;;;;3.97;1.50;;;;;;;26.19;31.31;102170.22;4147994;28;20652;-71
2021/10/23 03:24:10;;;;;;;4.65;1.60;;;;;;;26.33;31.04;102188.84;4148268;28;20548;-71
2021/10/23 03:26:13;;;;;;;4.85;1.40;;;;;;;26.32;31.31;102184.44;4147997;28;20049;-68
2021/10/23 03:28:15;;;;;;;4.40;1.45;;;;;;;26.13;31.31;102161.63;4148084;28;20038;-61
2021/10/23 03:30:17;;;;;;;3.30;1.30;;;;;;;26.49;31.30;102218.16;4148176;28;20409;-67
2021/10/23 03:32:20;;;;;;;3.97;1.30;;;;;;;26.23;31.15;102168.97;4147853;28;20419;-67
2021/10/23 03:34:22;;;;;;;5.00;1.50;;;;;;;26.47;30.91;102212.88;4148206;28;20054;-64
2021/10/23 03:36:24;;;;;;;4.38;1.50;;;;;;;26.30;31.08;102189.94;4148023;28;20050;-65
2021/10/23 03:38:27;;;;;;;5.32;1.58;;;;;;;26.50;31.15;102219.00;4144608;28;20042;-70
2021/10/23 03:40:29;;;;;;;2.95;1.40;;;;;;;26.49;30.89;102215.47;4148124;28;20041;-64
2021/10/23 03:42:31;;;;;;;3.92;1.50;;;;;;;26.11;31.08;102147.41;4162903;28;20082;-65
2021/10/23 03:44:34;;;;;;;3.38;1.38;;;;;;;26.51;31.10;102216.19;4163076;28;20045;-65
2021/10/23 03:46:36;;;;;;;4.15;1.55;;;;;;;26.37;31.11;102189.44;4147822;28;20046;-65
2021/10/23 03:48:38;;;;;;;4.60;1.67;;;;;;;26.43;31.29;102194.38;4146828;28;20434;-69
2021/10/23 03:50:40;;;;;;;4.82;1.63;;;;;;;26.45;31.00;102206.75;4148012;28;20050;-67
2021/10/23 03:52:42;;;;;;;5.22;1.63;;;;;;;26.44;31.02;102199.66;4147599;28;20057;-66
2021/10/23 03:54:45;;;;;;;3.05;1.30;;;;;;;26.26;30.97;102164.22;4147776;28;20046;-68
2021/10/23 03:56:47;;;;;;;4.47;1.60;;;;;;;26.50;31.13;102203.66;4147745;28;20533;-68
2021/10/23 03:58:49;;;;;;;4.07;1.60;;;;;;;26.29;31.00;102168.50;4152088;28;20046;-61
2021/10/23 04:00:52;;;;;;;3.72;1.33;;;;;;;26.35;31.11;102173.41;4148243;28;20049;-63
2021/10/23 04:02:55;;;;;;;3.45;1.23;;;;;;;26.26;31.09;102155.25;4147541;28;20045;-62
2021/10/23 04:04:57;;;;;;;3.47;1.48;;;;;;;26.51;30.78;102193.75;4147654;28;20045;-64
2021/10/23 04:06:59;;;;;;;5.32;1.77;;;;;;;26.30;31.31;102165.66;4147829;28;20362;-67
2021/10/23 04:09:02;;;;;;;4.03;1.80;;;;;;;26.47;31.08;102193.97;4147349;28;20056;-65
2021/10/23 04:11:04;;;;;;;3.75;1.58;;;;;;;26.21;31.37;102139.44;4147573;28;20042;-61
2021/10/23 04:13:06;;;;;;;2.88;1.30;;;;;;;26.22;30.88;102145.69;4147284;28;20065;-66
2021/10/23 04:15:08;;;;;;;5.28;1.70;;;;;;;26.27;31.21;102151.56;4147557;28;20042;-61
2021/10/23 04:17:11;;;;;;;4.13;1.45;;;;;;;26.21;30.90;102150.25;4146550;28;20053;-61
2021/10/23 04:19:13;;;;;;;4.72;1.55;;;;;;;26.51;30.82;102194.59;4147828;28;20103;-64
2021/10/23 04:21:15;;;;;;;4.53;1.50;;;;;;;26.51;31.48;102197.28;4147445;28;20046;-61
2021/10/23 04:23:17;;;;;;;4.68;1.58;;;;;;;26.50;31.02;102192.88;4147149;28;20529;-66
2021/10/23 04:25:20;;;;;;;4.05;1.40;;;;;;;26.26;31.06;102158.81;4147141;28;20314;-63
2021/10/23 04:27:22;;;;;;;3.63;1.45;;;;;;;26.24;30.94;102151.84;4147433;28;20045;-61
2021/10/23 04:29:24;;;;;;;3.83;1.50;;;;;;;26.28;30.93;102159.56;4147137;28;20057;-61
2021/10/23 04:31:27;;;;;;;3.85;1.50;;;;;;;26.53;30.95;102197.19;4147306;28;20163;-66
2021/10/23 04:33:29;;;;;;;4.57;1.70;;;;;;;26.50;31.05;102189.34;4147476;28;20064;-60
2021/10/23 04:35:31;;;;;;;5.45;1.88;;;;;;;26.38;30.86;102178.56;4147133;28;20057;-61
2021/10/23 04:37:34;;;;;;;2.80;1.20;;;;;;;26.44;30.89;102187.97;4147351;28;20052;-62
2021/10/23 04:39:36;;;;;;;3.85;1.50;;;;;;;26.49;31.13;102190.31;4146821;28;20049;-65
2021/10/23 04:41:39;;;;;;;3.58;1.40;;;;;;;26.52;30.95;102195.47;4147150;28;20490;-60
2021/10/23 04:43:41;;;;;;;3.53;1.50;;;;;;;26.52;31.14;102198.16;4146965;28;20038;-61
2021/10/23 04:45:43;;;;;;;4.95;1.80;;;;;;;26.53;31.03;102198.03;4147031;28;20046;-62
2021/10/23 04:47:45;;;;;;;4.32;1.40;;;;;;;26.47;30.97;102188.59;4147118;28;20042;-63
2021/10/23 04:49:48;;;;;;;4.85;1.40;;;;;;;26.29;30.93;102163.94;4146763;28;20046;-70
2021/10/23 04:51:50;;;;;;;4.13;1.50;;;;;;;26.51;30.95;102193.75;4146979;28;20053;-64
2021/10/23 04:53:52;;;;;;;4.43;1.40;;;;;;;26.17;30.96;102139.81;4146751;28;20045;-64
2021/10/23 04:55:54;;;;;;;4.18;1.50;;;;;;;26.29;31.01;102161.25;4146618;28;20050;-65
2021/10/23 04:57:57;;;;;;;3.50;1.27;;;;;;;26.34;31.15;102168.97;4146715;28;20054;-61
2021/10/23 05:00:00;;;;;;;3.60;1.38;;;;;;;26.52;30.92;102200.88;4152347;28;20502;-62
2021/10/23 05:02:02;;;;;;;4.00;1.30;;;;;;;26.24;31.09;102155.38;4146825;28;20046;-62
2021/10/23 05:04:04;;;;;;;3.15;1.15;;;;;;;26.24;30.71;102155.38;4146778;28;20045;-62
2021/10/23 05:06:07;;;;;;;4.45;1.48;;;;;;;26.22;30.88;102165.44;4145245;28;20057;-59
2021/10/23 05:08:09;;;;;;;4.00;1.70;;;;;;;26.43;30.74;102195.22;4130652;28;20128;-71
2021/10/23 05:10:13;;;;;;;3.45;1.42;;;;;;;26.41;30.77;102191.78;4137377;28;20115;-60
2021/10/23 05:12:16;;;;;;;3.47;1.70;;;;;;;26.45;30.94;102197.78;4146585;28;20493;-65
2021/10/23 05:14:19;;;;;;;5.32;1.65;;;;;;;26.53;30.78;102222.31;4146820;28;20046;-65
2021/10/23 05:16:21;;;;;;;4.35;1.60;;;;;;;26.47;30.99;102203.94;4146284;28;20117;-71
2021/10/23 05:18:24;;;;;;;3.45;1.45;;;;;;;26.33;31.20;102177.19;4146354;28;20671;-70
2021/10/23 05:20:26;;;;;;;4.18;1.35;;;;;;;26.49;31.03;102214.59;4146230;28;20057;-67
2021/10/23 05:22:28;;;;;;;4.15;1.40;;;;;;;26.42;31.00;102203.44;4146384;28;20425;-64
2021/10/23 05:24:30;;;;;;;2.67;1.27;;;;;;;26.37;30.60;102194.84;4146541;28;20540;-65
2021/10/23 05:26:33;;;;;;;3.47;1.50;;;;;;;26.27;31.02;102181.22;4146037;28;20053;-69
2021/10/23 05:28:35;;;;;;;5.43;1.65;;;;;;;26.56;30.85;102210.41;4146331;28;20056;-68
2021/10/23 05:30:37;;;;;;;4.57;1.40;;;;;;;26.43;30.59;102194.38;4146237;28;20410;-67
2021/10/23 05:32:40;;;;;;;4.60;1.40;;;;;;;26.47;30.98;102209.31;4135487;28;20042;-64
2021/10/23 05:34:42;;;;;;;3.03;1.40;;;;;;;26.38;30.85;102191.16;4146257;28;20046;-70
2021/10/23 05:36:44;;;;;;;3.45;1.30;;;;;;;26.27;30.85;102170.44;4145951;28;20049;-63
2021/10/23 05:38:46;;;;;;;3.08;1.20;;;;;;;26.50;30.89;102211.75;4146045;28;20072;-68
2021/10/23 05:40:48;;;;;;;3.67;1.42;;;;;;;26.36;31.09;102182.38;4145902;28;20428;-66
2021/10/23 05:42:51;;;;;;;4.47;1.65;;;;;;;26.34;30.98;102184.31;4145986;28;20049;-65
2021/10/23 05:44:53;;;;;;;4.05;1.60;;;;;;;26.49;30.84;102211.88;4146203;28;20480;-60
2021/10/23 05:46:55;;;;;;;3.70;1.40;;;;;;;26.36;30.80;102191.31;4145697;28;20042;-67
2021/10/23 05:48:57;;;;;;;5.32;1.30;;;;;;;26.48;30.80;102208.34;4146103;28;20050;-64
2021/10/23 05:51:00;;;;;;;3.88;1.33;;;;;;;26.57;30.77;102218.38;4146030;28;20053;-68
2021/10/23 05:53:02;;;;;;;4.45;1.60;;;;;;;26.28;31.00;102173.03;4145974;28;20045;-68
2021/10/23 05:55:05;;;;;;;3.97;1.52;;;;;;;26.52;30.97;102211.66;4145958;28;20060;-65
2021/10/23 05:57:08;;;;;;;4.78;1.48;;;;;;;26.57;30.66;102223.78;4145706;28;20045;-63
2021/10/23 05:59:11;;;;;;;3.55;1.30;;;;;;;26.41;30.69;102197.19;4153292;28;20065;-60
2021/10/23 06:01:14;;;;;;;3.72;1.52;;;;;;;26.56;30.60;102227.50;4160322;28;20041;-63
2021/10/23 06:03:20;;;;;;;3.53;1.50;;;;;;;26.24;30.70;102181.50;4145624;28;20038;-61
2021/10/23 06:05:23;;;;;;;4.20;1.50;;;;;;;26.44;30.85;102212.25;4145813;28;20065;-64
2021/10/23 06:07:30;;;;;;;3.80;1.67;;;;;;;26.40;30.83;102208.09;4145471;28;20489;-66
2021/10/23 06:09:32;;;;;;;4.40;1.67;;;;;;;26.37;30.78;102203.81;4145687;28;20046;-63
2021/10/23 06:11:34;;;;;;;3.42;1.27;;;;;;;26.49;31.13;102214.59;4145550;28;20046;-65
2021/10/23 06:13:36;;;;;;;4.38;1.40;;;;;;;26.23;30.76;102180.63;4142136;28;20607;-66
2021/10/23 06:15:39;;;;;;;3.88;1.50;;;;;;;26.56;30.87;102238.28;4145960;28;20120;-64
2021/10/23 06:17:41;;;;;;;5.30;1.58;;;;;;;26.30;30.91;102199.88;4144302;28;20045;-67
2021/10/23 06:19:44;;;;;;;3.80;1.10;;;;;;;26.58;30.76;102233.59;4145770;28;20046;-63
2021/10/23 06:21:46;;;;;;;4.47;1.30;;;;;;;26.57;30.65;102237.28;4145638;28;20049;-61
2021/10/23 06:23:48;;;;;;;4.45;1.45;;;;;;;26.26;30.81;102179.50;4144496;28;20218;-62
2021/10/23 06:25:50;;;;;;;4.20;1.50;;;;;;;26.58;30.72;102239.00;4145606;28;20045;-62
2021/10/23 06:27:53;;;;;;;3.25;1.40;;;;;;;26.41;30.84;102218.75;4145535;28;20046;-69
2021/10/23 06:29:55;;;;;;;4.05;1.30;;;;;;;26.25;30.98;102194.00;4145645;28;20050;-64
2021/10/23 06:31:58;;;;;;;4.35;1.40;;;;;;;26.52;30.84;102241.34;4145627;28;20050;-60
2021/10/23 06:34:00;;;;;;;5.13;1.52;;;;;;;26.58;31.01;102254.34;4145476;28;20069;-61
2021/10/23 06:36:03;;;;;;;3.45;1.30;;;;;;;26.38;30.87;102216.31;4145495;28;20041;-61
2021/10/23 06:38:05;;;;;;;3.40;1.40;;;;;;;26.30;30.93;102208.81;4145343;28;20064;-61
2021/10/23 06:40:08;;;;;;;5.97;1.45;;;;;;;26.58;30.68;102262.44;4145614;28;20129;-66
2021/10/23 06:42:10;;;;;;;4.55;1.38;;;;;;;26.37;30.88;102227.22;4149048;28;20056;-70
2021/10/23 06:44:13;;;;;;;4.50;1.60;;;;;;;26.40;30.74;102230.53;4148542;28;20045;-60
2021/10/23 06:46:15;;;;;;;4.18;1.40;;;;;;;26.61;30.67;102268.44;4148796;28;20038;-70
2021/10/23 06:48:18;;;;;;;4.07;1.60;;;;;;;26.28;30.64;102204.53;4148655;28;20461;-68
2021/10/23 06:50:20;;;;;;;4.47;1.60;;;;;;;26.40;30.88;102230.53;4148792;28;20517;-66
2021/10/23 06:52:22;;;;;;;6.38;1.58;;;;;;;26.61;30.95;102267.56;4148754;28;20064;-62
2021/10/23 06:54:25;;;;;;;3.35;1.20;;;;;;;26.35;30.74;102230.03;4148268;28;20041;-70
2021/10/23 06:56:28;;;;;;;4.57;1.45;;;;;;;26.57;30.53;102260.72;4148414;28;20041;-68
2021/10/23 06:58:30;;;;;;;4.68;1.60;;;;;;;26.45;30.99;102251.75;4150664;28;20522;-71
2021/10/23 07:00:34;;;;;;;4.25;1.35;;;;;;;26.60;30.69;102277.53;4163410;28;20049;-63
2021/10/23 07:02:40;;;;;;;4.25;1.42;;;;;;;26.37;30.73;102236.19;4148550;28;20386;-69
2021/10/23 07:04:43;;;;;;;5.45;1.55;;;;;;;26.43;30.76;102246.47;4148370;28;20050;-70
2021/10/23 07:06:45;;;;;;;4.03;1.30;;;;;;;26.61;30.89;102287.34;4148424;28;20100;-70
2021/10/23 07:08:47;;;;;;;4.47;1.50;;;;;;;26.57;31.01;102277.75;4148519;28;20049;-65
2021/10/23 07:10:53;;;;;;;3.17;1.40;;;;;;;26.35;30.61;102237.28;4148413;28;20046;-66
2021/10/23 07:12:55;;;;;;;5.03;1.45;;;;;;;26.63;30.47;102284.50;4148488;28;20042;-65
2021/10/23 07:14:57;;;;;;;2.80;1.50;;;;;;;26.57;30.92;102285.84;4148544;28;20053;-59
2021/10/23 07:16:59;;;;;;;5.22;1.45;;;;;;;26.42;30.70;102260.94;4148423;28;20173;-67
2021/10/23 07:19:02;;;;;;;4.03;1.50;;;;;;;26.36;30.88;102252.50;4148331;28;20049;-63
2021/10/23 07:21:04;;;;;;;3.72;1.33;;;;;;;26.56;30.92;102283.28;4148361;28;20049;-64
2021/10/23 07:23:06;;;;;;;4.18;1.10;;;;;;;26.64;30.78;102307.81;4148359;28;20046;-62
2021/10/23 07:25:09;;;;;;;3.55;1.33;;;;;;;26.49;30.81;102284.75;4148160;28;20456;-67
2021/10/23 07:27:11;;;;;;;3.72;1.50;;;;;;;26.42;30.62;102271.72;4148260;28;20077;-69
2021/10/23 07:29:14;;;;;;;3.95;1.55;;;;;;;26.56;30.77;102300.34;4148265;28;20524;-67
2021/10/23 07:31:16;;;;;;;4.15;1.30;;;;;;;26.58;30.96;102309.16;4148148;28;20054;-70
2021/10/23 07:33:19;;;;;;;3.92;1.50;;;;;;;26.64;30.84;102310.53;4148307;28;20038;-70
2021/10/23 07:35:21;;;;;;;3.95;1.30;;;;;;;26.47;30.54;102282.16;4147997;28;20065;-67
2021/10/23 07:37:23;;;;;;;4.72;1.42;;;;;;;26.27;30.70;102265.72;4148076;28;20042;-71
2021/10/23 07:39:26;;;;;;;4.60;1.70;;;;;;;26.49;30.66;102304.50;4148007;28;20057;-70
2021/10/23 07:41:28;;;;;;;4.05;1.50;;;;;;;26.62;30.47;102325.97;4147877;28;20402;-70
2021/10/23 07:43:30;;;;;;;4.32;1.48;;;;;;;26.68;30.79;102330.88;4148223;28;20493;-69
2021/10/23 07:45:33;;;;;;;3.80;1.45;;;;;;;26.68;30.80;102330.03;4147940;28;20037;-69
2021/10/23 07:47:37;;;;;;;3.50;1.33;;;;;;;26.67;30.40;102336.41;4147887;28;20046;-65
2021/10/23 07:49:40;;;;;;;4.38;1.30;;;;;;;26.47;30.63;102301.06;4148156;28;20073;-64
2021/10/23 07:51:43;;;;;;;3.90;1.35;;;;;;;26.46;30.87;102310.97;4146653;28;20057;-64
2021/10/23 07:53:45;;;;;;;4.35;1.30;;;;;;;26.69;30.85;102347.94;4147906;28;20046;-61
2021/10/23 07:55:47;;;;;;;3.90;1.65;;;;;;;26.70;30.70;102347.81;4147503;28;20421;-67
2021/10/23 07:57:49;;;;;;;3.47;1.20;;;;;;;26.34;30.74;102292.22;4139642;28;20038;-60
2021/10/23 07:59:52;;;;;;;2.75;1.10;;;;;;;26.50;30.56;102322.38;4161219;28;20107;-68
2021/10/23 08:02:01;;;;;;;4.72;1.52;;;;;;;26.55;30.88;102322.03;4148210;28;20137;-66
2021/10/23 08:04:03;;;;;;;5.22;1.60;;;;;;;26.70;30.50;102355.91;4146419;28;20120;-64
2021/10/23 08:06:06;;;;;;;4.93;1.50;;;;;;;26.48;30.72;102313.56;4147331;28;20049;-65
2021/10/23 08:08:08;;;;;;;4.10;1.42;;;;;;;26.36;30.72;102296.50;4147636;28;20123;-61
2021/10/23 08:10:11;;;;;;;3.67;1.40;;;;;;;26.57;30.61;102334.41;4147664;28;20057;-62
2021/10/23 08:12:13;;;;;;;4.43;1.40;;;;;;;26.39;30.36;102304.38;4147349;28;20050;-65
2021/10/23 08:14:20;;;;;;;4.13;1.38;;;;;;;26.68;30.48;102349.75;4147583;28;20057;-62
2021/10/23 08:16:22;;;;;;;4.03;1.45;;;;;;;26.35;30.53;102302.88;4147408;28;20053;-64
2021/10/23 08:18:24;;;;;;;4.57;1.58;;;;;;;26.63;30.80;102343.88;4147432;28;20472;-65
2021/10/23 08:20:27;;;;;;;5.50;1.48;;;;;;;26.55;30.79;102325.59;4147452;28;20060;-64
2021/10/23 08:22:29;;;;;;;5.13;1.52;;;;;;;26.58;30.71;102338.00;4147109;28;20120;-68
2021/10/23 08:24:31;;;;;;;3.90;1.30;;;;;;;26.45;30.68;102309.28;4147632;28;20115;-65
2021/10/23 08:26:33;;;;;;;3.63;1.42;;;;;;;26.74;30.34;102353.81;4147058;28;20049;-61
2021/10/23 08:28:37;;;;;;;3.55;1.30;;;;;;;26.60;30.50;102333.34;4147136;28;20140;-69
2021/10/23 08:30:41;;;;;;;3.58;1.50;;;;;;;26.61;30.35;102335.91;4147261;28;20589;-64
2021/10/23 08:32:44;;;;;;;3.83;1.50;;;;;;;26.65;30.81;102339.22;4145658;28;20046;-66
2021/10/23 08:34:47;;;;;;;3.53;1.30;;;;;;;26.70;30.72;102345.13;4147157;28;20049;-66
2021/10/23 08:36:49;;;;;;;3.30;1.30;;;;;;;26.45;30.63;102308.41;4146931;28;20038;-63
2021/10/23 08:38:52;;;;;;;5.05;1.48;;;;;;;26.78;30.77;102363.41;4147079;28;20299;-66
2021/10/23 08:40:55;;;;;;;4.93;1.70;;;;;;;26.65;30.76;102331.13;4146982;28;20417;-67
2021/10/23 08:42:57;;;;;;;3.70;1.55;;;;;;;26.53;30.77;102322.16;4146751;28;20053;-70
2021/10/23 08:45:10;;;;;;;4.53;1.40;;;;;;;26.44;30.30;102295.88;4147120;28;20045;-66
2021/10/23 08:47:15;;;;;;;4.57;1.50;;;;;;;26.65;30.29;102331.13;4146606;28;20042;-67
2021/10/23 08:49:17;;;;;;;3.75;1.30;;;;;;;26.49;30.53;102312.59;4147054;28;20471;-61
2021/10/23 08:51:20;;;;;;;3.20;1.30;;;;;;;26.78;30.73;102358.91;4147098;28;20046;-61
2021/10/23 08:53:22;;;;;;;3.25;1.25;;;;;;;26.43;30.69;102299.59;4146869;28;20426;-67
2021/10/23 08:55:24;;;;;;;4.80;1.42;;;;;;;26.61;30.73;102333.22;4146953;28;20057;-68
2021/10/23 08:57:28;;;;;;;3.85;1.50;;;;;;;26.65;30.52;102335.66;4146458;28;20054;-64
2021/10/23 08:59:30;;;;;;;3.90;1.50;;;;;;;26.83;30.60;102360.38;4152125;28;20050;-64
2021/10/23 09:01:33;;;;;;;3.70;1.23;;;;;;;26.66;30.60;102332.84;4145544;28;20434;-67
2021/10/23 09:03:36;;;;;;;3.72;1.23;;;;;;;26.61;30.41;102332.34;4145734;28;20062;-65
2021/10/23 09:05:38;;;;;;;4.82;1.50;;;;;;;26.84;30.37;102364.78;4146689;28;20041;-64
2021/10/23 09:07:49;;;;;;;3.90;1.27;;;;;;;26.68;30.53;102336.25;4146655;28;20042;-60
2021/10/23 09:09:56;;;;;;;4.28;1.30;;;;;;;26.83;30.35;102365.75;4146709;28;20044;-69
2021/10/23 09:11:58;;;;;;;4.60;1.45;;;;;;;26.64;30.38;102337.50;4146838;28;20048;-60
2021/10/23 09:14:24;;;;;;;3.30;1.30;;;;;;;26.46;30.13;102296.63;4146459;28;20470;-67
2021/10/23 09:16:27;;;;;;;6.60;1.50;;;;;;;26.71;29.96;102346.84;4130649;28;20587;-62
2021/10/23 09:18:48;;;;;;;4.90;1.58;;;;;;;26.81;29.67;102352.41;4137663;28;20046;-65
2021/10/23 09:20:51;;;;;;;5.00;1.58;;;;;;;26.38;29.83;102297.25;4147095;28;20045;-70
2021/10/23 09:22:54;;;;;;;5.25;1.90;;;;;;;26.77;29.71;102359.88;4146383;28;20046;-59
2021/10/23 09:25:15;;;;;;;5.70;1.80;;;;;;;26.82;29.17;102361.34;4143152;28;20048;-64
2021/10/23 09:27:19;;;;;;;4.03;1.60;;;;;;;26.78;29.65;102363.41;4144519;28;20041;-63
2021/10/23 09:29:25;;;;;;;5.43;1.65;;;;;;;26.78;29.30;102360.72;4146320;28;20193;-64
2021/10/23 09:31:48;;;;;;;5.85;1.77;;;;;;;26.65;29.39;102343.75;4144780;28;20405;-61